EDT,Max TemperatureF,Mean TemperatureF,Min TemperatureF,Max Dew PointF,MeanDew PointF,Min DewpointF,Max Humidity, Mean Humidity, Min Humidity, Max Sea Level PressureIn, Mean Sea Level PressureIn, Min Sea Level PressureIn, Max VisibilityMiles, Mean VisibilityMiles, Min VisibilityMiles, Max Wind SpeedMPH, Mean Wind SpeedMPH, Max Gust SpeedMPH,PrecipitationIn, CloudCover, Events, WindDirDegrees
2013-4-1,71,58,45,52,42,33,100,64,28,29.97,29.86,29.82,10,9,2,25,10,32,T,4,Fog-Rain,288
2013-4-2,59,48,37,32,22,14,64,42,19,30.15,30.08,29.99,10,10,10,20,7,24,0.00,0,,340
2013-4-3,58,47,36,19,15,12,44,31,17,30.29,30.23,30.14,10,10,10,13,6,21,0.00,0,,21
2013-4-4,47,41,35,34,27,11,92,58,23,30.33,30.17,29.96,10,7,2,20,12,25,0.93,6,Rain-Snow,46
2013-4-5,66,51,35,43,36,27,100,63,25,30.02,29.94,29.88,10,9,4,13,6,17,0.01,5,Rain,342
2013-4-6,64,52,39,32,30,28,70,49,27,30.25,30.17,30.03,10,10,10,16,6,21,0.00,0,,89
2013-4-7,71,57,42,44,38,32,76,54,31,30.24,30.17,30.09,10,10,10,20,9,28,0.00,0,,198
2013-4-8,78,65,52,53,49,44,93,65,36,30.14,30.09,30.03,10,10,10,21,9,26,0.00,1,,216
2013-4-9,84,70,55,54,52,49,86,60,33,30.17,30.10,30.05,10,10,10,18,8,23,0.00,1,,221
2013-4-10,85,73,60,57,55,54,78,56,34,30.08,30.01,29.93,10,10,10,18,10,23,0.00,0,,217
2013-4-11,81,71,60,62,58,55,90,68,45,29.98,29.88,29.75,10,10,10,22,12,31,T,3,,208
2013-4-12,82,69,56,64,56,37,100,67,33,29.78,29.67,29.58,10,9,2,29,15,35,0.65,5,Rain-Thunderstorm,231
2013-4-13,73,61,48,39,35,30,59,41,23,30.00,29.91,29.80,10,10,10,18,6,29,0.00,0,,293
2013-4-14,78,63,47,51,38,31,66,43,20,30.08,30.03,29.99,10,10,10,18,5,30,T,1,Rain,190
2013-4-15,68,62,55,56,54,51,93,78,63,30.20,30.09,30.00,10,9,2,14,8,16,0.13,7,Rain,56
2013-4-16,77,67,57,59,57,55,93,72,50,30.29,30.22,30.17,10,10,7,13,5,15,0.00,5,,167
2013-4-17,80,69,58,59,57,55,90,66,42,30.21,30.16,30.10,10,10,10,14,5,17,0.00,3,,199
2013-4-18,79,72,64,62,58,54,87,65,42,30.18,30.09,30.00,10,10,10,20,12,24,0.00,5,,184
2013-4-19,77,66,55,65,61,45,93,78,62,29.97,29.82,29.70,10,9,1,32,16,41,0.30,7,Rain-Thunderstorm,205
2013-4-20,64,53,42,45,30,25,66,46,25,30.26,30.09,29.88,10,10,10,22,8,33,0.00,1,,330
2013-4-21,60,52,43,36,32,28,65,51,36,30.48,30.40,30.28,10,10,10,21,10,28,0.00,1,,67
2013-4-22,62,50,37,37,30,22,85,54,23,30.45,30.36,30.25,10,10,10,18,12,25,0.00,2,,53
2013-4-23,68,58,47,50,44,37,86,67,48,30.27,30.20,30.10,10,10,5,17,7,21,0.02,6,Rain,51
2013-4-24,75,63,50,54,52,49,93,71,49,30.12,30.05,29.96,10,10,7,25,11,36,0.00,2,,216
2013-4-25,69,59,48,55,36,23,73,45,17,30.28,30.18,30.01,10,10,10,21,5,25,0.00,3,,332
2013-4-26,69,57,45,41,31,27,53,38,22,30.43,30.35,30.30,10,10,10,13,4,18,0.00,0,,11
2013-4-27,67,61,55,50,45,38,77,61,44,30.34,30.31,30.25,10,10,10,12,5,14,T,7,Rain,224
2013-4-28,57,55,53,54,52,49,100,89,77,30.24,30.17,30.05,10,4,1,14,7,18,1.39,8,Rain,96
2013-4-29,68,61,54,59,56,53,100,87,73,30.05,30.02,29.96,10,9,2,10,3,14,0.32,7,Rain,49
2013-4-30,66,61,55,56,55,52,100,84,68,30.19,30.10,30.01,10,8,1,15,7,20,0.00,7,,48